createdAt,value
2022-10-04T00:01:54.505Z,12.50
2022-10-04T00:04:33.989Z,12.40
2022-10-04T00:07:15.828Z,12.40
2022-10-04T00:09:51.134Z,12.40
2022-10-04T00:12:25.121Z,12.30
2022-10-04T00:14:57.972Z,12.30
2022-10-04T00:17:31.801Z,12.30
2022-10-04T00:20:02.857Z,12.30
2022-10-04T00:22:32.745Z,12.30
2022-10-04T00:25:34.584Z,12.30
2022-10-04T00:28:45.415Z,12.30
2022-10-04T00:31:24.674Z,12.30
2022-10-04T00:33:57.233Z,12.20
2022-10-04T00:36:49.497Z,12.20
2022-10-04T00:39:44.941Z,12.20
2022-10-04T00:42:49.151Z,12.20
2022-10-04T00:45:35.558Z,12.20
2022-10-04T00:48:33.076Z,12.20
2022-10-04T00:51:12.217Z,12.20
2022-10-04T00:53:57.304Z,12.20
2022-10-04T00:56:37.848Z,12.20
2022-10-04T00:59:23.419Z,12.10
2022-10-04T01:01:59.675Z,12.20
2022-10-04T01:04:52.437Z,12.10
2022-10-04T01:07:29.968Z,12.00
2022-10-04T01:10:05.564Z,12.00
2022-10-04T01:12:47.299Z,12.10
2022-10-04T01:15:28.920Z,12.00
2022-10-04T01:18:17.882Z,12.00
2022-10-04T01:20:58.372Z,12.10
2022-10-04T01:23:41.845Z,12.10
2022-10-04T01:26:41.875Z,12.10
2022-10-04T01:29:16.358Z,12.10
2022-10-04T01:31:48.399Z,12.10
2022-10-04T01:34:20.226Z,12.10
2022-10-04T01:36:52.568Z,12.10
2022-10-04T01:39:25.789Z,12.10
2022-10-04T01:42:02.547Z,12.10
2022-10-04T01:44:39.329Z,12.10
2022-10-04T01:47:16.083Z,12.20
2022-10-04T01:49:47.524Z,12.10
2022-10-04T01:52:22.837Z,12.10
2022-10-04T01:55:04.424Z,12.20
2022-10-04T01:57:39.856Z,12.20
2022-10-04T02:00:13.269Z,12.20
2022-10-04T02:02:51.357Z,12.20
2022-10-04T02:05:29.975Z,12.10
2022-10-04T02:08:04.527Z,12.10
2022-10-04T02:10:43.026Z,12.10
2022-10-04T02:13:18.647Z,12.10
2022-10-04T02:15:50.370Z,12.10
2022-10-04T02:18:22.417Z,12.10
2022-10-04T02:20:53.629Z,12.10
2022-10-04T02:23:24.300Z,12.00
2022-10-04T02:25:54.642Z,12.00
2022-10-04T02:28:23.412Z,12.00
2022-10-04T02:31:12.319Z,12.00
2022-10-04T02:33:43.824Z,11.90
2022-10-04T02:36:14.243Z,11.90
2022-10-04T02:39:00.946Z,11.90
2022-10-04T02:41:35.875Z,12.00
2022-10-04T02:44:14.695Z,12.00
2022-10-04T02:46:52.713Z,11.90
2022-10-04T02:49:29.966Z,11.80
2022-10-04T02:52:07.030Z,11.90
2022-10-04T02:54:43.626Z,11.90
2022-10-04T02:57:19.445Z,11.90
2022-10-04T02:59:51.897Z,11.90
2022-10-04T03:02:29.808Z,11.90
2022-10-04T03:05:08.215Z,12.00
2022-10-04T03:07:39.173Z,12.00
2022-10-04T03:10:12.548Z,12.10
2022-10-04T03:12:43.681Z,12.10
2022-10-04T03:15:14.079Z,12.20
2022-10-04T03:17:45.222Z,12.20
2022-10-04T03:20:21.293Z,12.20
2022-10-04T03:22:56.894Z,12.20
2022-10-04T03:25:32.047Z,12.20
2022-10-04T03:28:05.276Z,12.20
2022-10-04T03:30:35.828Z,12.20
2022-10-04T03:33:06.560Z,12.30
2022-10-04T03:35:40.500Z,12.30
2022-10-04T03:38:13.987Z,12.30
2022-10-04T03:40:53.309Z,12.30
2022-10-04T03:43:27.892Z,12.30
2022-10-04T03:45:58.295Z,12.40
2022-10-04T03:48:33.315Z,12.40
2022-10-04T03:51:05.728Z,12.40
2022-10-04T03:53:43.460Z,12.40
2022-10-04T03:56:18.393Z,12.40
2022-10-04T03:58:51.610Z,12.40
2022-10-04T04:01:40.980Z,12.40
2022-10-04T04:04:23.393Z,12.40
2022-10-04T04:07:04.303Z,12.40
2022-10-04T04:09:45.099Z,12.40
2022-10-04T04:12:20.652Z,12.50
2022-10-04T04:14:53.418Z,12.40
2022-10-04T04:17:39.339Z,12.40
2022-10-04T04:20:23.344Z,12.40
2022-10-04T04:23:05.345Z,12.40
2022-10-04T04:25:40.090Z,12.40
2022-10-04T04:28:26.182Z,12.50
2022-10-04T04:31:04.605Z,12.40
2022-10-04T04:33:42.142Z,12.40
2022-10-04T04:36:15.977Z,12.40
2022-10-04T04:38:59.361Z,12.40
2022-10-04T04:41:32.285Z,12.40
2022-10-04T04:44:01.566Z,12.40
2022-10-04T04:46:32.814Z,12.40
2022-10-04T04:49:05.643Z,12.40
2022-10-04T04:51:35.233Z,12.40
2022-10-04T04:54:07.910Z,12.40
2022-10-04T04:56:36.960Z,12.40
2022-10-04T04:59:09.009Z,12.40
2022-10-04T05:01:46.550Z,12.40
2022-10-04T05:04:22.963Z,12.40
2022-10-04T05:07:04.181Z,12.40
2022-10-04T05:09:35.851Z,12.40
2022-10-04T05:12:11.546Z,12.50
2022-10-04T05:14:47.404Z,12.50
2022-10-04T05:17:26.286Z,12.50
2022-10-04T05:20:00.579Z,12.50
2022-10-04T05:22:32.518Z,12.50
2022-10-04T05:25:11.225Z,12.60
2022-10-04T05:27:44.758Z,12.60
2022-10-04T05:30:33.468Z,12.70
2022-10-04T05:33:08.413Z,12.70
2022-10-04T05:36:17.650Z,12.70
2022-10-04T05:39:03.850Z,12.70
2022-10-04T05:41:41.559Z,12.80
2022-10-04T05:44:27.856Z,12.80
2022-10-04T05:47:00.277Z,12.80
2022-10-04T05:49:38.976Z,12.70
2022-10-04T05:52:18.092Z,12.70
2022-10-04T05:54:46.749Z,12.60
2022-10-04T05:57:44.942Z,12.60
2022-10-04T06:00:18.930Z,12.60
2022-10-04T06:03:14.630Z,12.40
2022-10-04T06:05:55.017Z,12.50
2022-10-04T06:08:52.697Z,12.50
2022-10-04T06:11:38.928Z,12.60
2022-10-04T06:14:37.267Z,12.70
2022-10-04T06:17:26.073Z,12.80
2022-10-04T06:20:29.697Z,12.80
2022-10-04T06:23:03.605Z,13.00
2022-10-04T06:25:39.602Z,13.10
2022-10-04T06:28:19.913Z,13.20
2022-10-04T06:31:31.250Z,13.40
2022-10-04T06:34:22.235Z,13.70
2022-10-04T06:37:11.993Z,14.10
2022-10-04T06:40:22.302Z,14.00
2022-10-04T06:43:23.546Z,13.90
2022-10-04T06:46:16.856Z,13.80
2022-10-04T06:49:14.072Z,13.70
2022-10-04T06:52:06.951Z,13.80
2022-10-04T06:55:00.065Z,13.70
2022-10-04T06:58:00.177Z,13.70
2022-10-04T07:00:33.653Z,13.60
2022-10-04T07:03:10.837Z,13.60
2022-10-04T07:05:47.508Z,13.70
2022-10-04T07:08:32.657Z,13.60
2022-10-04T07:11:12.203Z,13.60
2022-10-04T07:13:52.532Z,13.70
2022-10-04T07:16:41.293Z,13.70
2022-10-04T07:19:36.308Z,13.70
2022-10-04T07:22:17.931Z,13.80
2022-10-04T07:25:02.305Z,13.70
2022-10-04T07:27:35.917Z,13.80
2022-10-04T07:30:16.425Z,13.90
2022-10-04T07:32:50.562Z,13.90
2022-10-04T07:35:33.926Z,13.80
2022-10-04T07:38:24.949Z,13.90
2022-10-04T07:41:09.466Z,14.00
2022-10-04T07:43:51.005Z,14.00
2022-10-04T07:46:44.575Z,14.10
2022-10-04T07:49:19.261Z,14.10
2022-10-04T07:52:14.161Z,14.10
2022-10-04T07:54:52.606Z,14.20
2022-10-04T07:57:31.032Z,14.30
2022-10-04T08:00:13.504Z,14.40
2022-10-04T08:03:11.656Z,14.50
2022-10-04T08:05:45.696Z,14.60
2022-10-04T08:08:39.034Z,14.60
2022-10-04T08:11:26.219Z,14.80
2022-10-04T08:14:12.973Z,15.20
2022-10-04T08:17:00.204Z,15.40
2022-10-04T08:19:48.727Z,15.90
2022-10-04T08:22:33.715Z,16.30
2022-10-04T08:25:16.388Z,16.70
2022-10-04T08:28:20.937Z,16.90
2022-10-04T08:31:17.924Z,17.20
2022-10-04T08:34:03.204Z,17.60
2022-10-04T08:36:56.735Z,18.10
2022-10-04T08:39:51.687Z,18.40
2022-10-04T08:43:07.659Z,19.00
2022-10-04T08:46:33.977Z,19.30
2022-10-04T08:49:46.705Z,19.10
2022-10-04T08:53:08.743Z,19.20
2022-10-04T08:56:02.914Z,18.80
2022-10-04T08:59:07.966Z,18.60
2022-10-04T09:02:11.737Z,19.20
2022-10-04T09:05:26.432Z,20.00
2022-10-04T09:08:47.359Z,20.80
2022-10-04T09:12:15.396Z,21.70
2022-10-04T09:15:27.669Z,21.40
2022-10-04T09:18:09.684Z,22.00
2022-10-04T09:20:59.237Z,22.30
2022-10-04T09:24:18.277Z,21.90
2022-10-04T09:26:53.809Z,21.30
2022-10-04T09:30:16.316Z,20.80
2022-10-04T09:33:33.562Z,20.20
2022-10-04T09:36:41.546Z,19.80
2022-10-04T09:39:47.600Z,19.70
2022-10-04T09:42:45.755Z,19.60
2022-10-04T09:45:44.724Z,19.10
2022-10-04T09:48:30.632Z,19.00
2022-10-04T09:51:31.519Z,19.10
2022-10-04T09:54:49.833Z,19.00
2022-10-04T09:57:33.153Z,19.00
2022-10-04T10:00:23.247Z,18.80
2022-10-04T10:03:44.448Z,18.60
2022-10-04T10:06:49.483Z,18.60
2022-10-04T10:09:58.914Z,18.10
2022-10-04T10:13:21.640Z,18.00
2022-10-04T10:16:06.667Z,18.00
2022-10-04T10:18:56.165Z,18.10
2022-10-04T10:21:47.795Z,18.00
2022-10-04T10:24:44.167Z,18.10
2022-10-04T10:27:49.275Z,18.10
2022-10-04T10:30:31.126Z,17.90
2022-10-04T10:33:33.001Z,18.00
2022-10-04T10:36:36.228Z,18.00
2022-10-04T10:39:48.814Z,17.90
2022-10-04T10:42:41.166Z,17.80
2022-10-04T10:45:38.911Z,17.90
2022-10-04T10:48:17.920Z,18.10
2022-10-04T10:51:03.570Z,18.20
2022-10-04T10:54:36.065Z,18.10
2022-10-04T10:57:34.200Z,18.00
2022-10-04T11:00:21.426Z,18.10
2022-10-04T11:03:51.870Z,18.00
2022-10-04T11:06:55.777Z,17.90
2022-10-04T11:10:03.612Z,17.70
2022-10-04T11:13:21.422Z,17.70
2022-10-04T11:17:04.082Z,17.60
2022-10-04T11:20:35.155Z,17.50
2022-10-04T11:24:07.197Z,17.50
2022-10-04T11:27:28.605Z,17.40
2022-10-04T11:30:23.574Z,17.40
2022-10-04T11:33:33.337Z,17.50
2022-10-04T11:36:47.017Z,17.50
2022-10-04T11:39:52.628Z,17.70
2022-10-04T11:42:42.655Z,17.80
2022-10-04T11:46:04.461Z,17.80
2022-10-04T11:49:00.176Z,17.70
2022-10-04T11:52:20.110Z,17.70
2022-10-04T11:55:54.146Z,17.50
2022-10-04T11:58:44.030Z,17.70
2022-10-04T12:01:46.927Z,17.70
2022-10-04T12:05:05.203Z,17.70
2022-10-04T12:07:50.550Z,17.90
2022-10-04T12:10:29.830Z,17.80
2022-10-04T12:13:43.769Z,18.00
2022-10-04T12:17:13.487Z,18.10
2022-10-04T12:20:18.730Z,18.40
2022-10-04T12:23:20.243Z,18.30
2022-10-04T12:26:34.518Z,18.40
2022-10-04T12:29:36.930Z,18.40
2022-10-04T12:32:16.109Z,18.60
2022-10-04T12:34:58.792Z,18.60
2022-10-04T12:37:39.178Z,18.60
2022-10-04T12:40:34.814Z,18.40
2022-10-04T12:43:17.363Z,18.40
2022-10-04T12:46:04.955Z,18.20
2022-10-04T12:48:55.514Z,18.20
2022-10-04T12:51:41.194Z,18.10
2022-10-04T12:54:32.084Z,18.20
2022-10-04T12:57:37.875Z,18.10
2022-10-04T13:00:19.360Z,18.10
2022-10-04T13:03:28.059Z,18.10
2022-10-04T13:06:13.057Z,18.20
2022-10-04T13:09:06.284Z,18.30
2022-10-04T13:12:01.810Z,18.30
2022-10-04T13:15:03.121Z,18.30
2022-10-04T13:17:50.873Z,18.30
2022-10-04T13:20:37.243Z,18.40
2022-10-04T13:23:23.112Z,18.30
2022-10-04T13:26:24.153Z,18.30
2022-10-04T13:29:04.552Z,18.30
2022-10-04T13:31:42.356Z,18.20
2022-10-04T13:34:29.507Z,18.20
2022-10-04T13:37:25.203Z,18.20
2022-10-04T13:40:34.252Z,18.20
2022-10-04T13:43:47.251Z,18.20
2022-10-04T13:46:33.227Z,18.10
2022-10-04T13:49:22.012Z,18.00
2022-10-04T13:52:34.381Z,18.00
2022-10-04T13:55:45.292Z,18.10
2022-10-04T13:58:30.453Z,18.10
2022-10-04T14:01:37.662Z,18.00
2022-10-04T14:04:33.161Z,17.90
2022-10-04T14:07:44.952Z,17.80
2022-10-04T14:11:09.166Z,17.80
2022-10-04T14:14:17.512Z,17.80
2022-10-04T14:17:29.789Z,17.90
2022-10-04T14:20:59.883Z,17.80
2022-10-04T14:24:09.064Z,17.80
2022-10-04T14:27:22.508Z,17.70
2022-10-04T14:30:21.135Z,17.70
2022-10-04T14:33:54.814Z,17.70
2022-10-04T14:37:05.026Z,17.60
2022-10-04T14:40:03.441Z,17.60
2022-10-04T14:43:15.403Z,17.60
2022-10-04T14:46:07.070Z,17.50
2022-10-04T14:49:04.301Z,17.50
2022-10-04T14:52:02.403Z,17.50
2022-10-04T14:54:46.267Z,17.40
2022-10-04T14:57:22.895Z,17.40
2022-10-04T15:00:18.912Z,17.40
2022-10-04T15:03:16.585Z,17.40
2022-10-04T15:06:11.057Z,17.30
2022-10-04T15:09:31.650Z,17.30
2022-10-04T15:12:58.408Z,17.20
2022-10-04T15:15:41.736Z,17.10
2022-10-04T15:18:29.309Z,17.20
2022-10-04T15:21:05.566Z,17.10
2022-10-04T15:23:43.000Z,17.10
2022-10-04T15:26:51.216Z,17.10
2022-10-04T15:29:28.740Z,17.20
2022-10-04T15:32:16.616Z,17.10
2022-10-04T15:35:00.656Z,17.10
2022-10-04T15:37:44.240Z,17.00
2022-10-04T15:40:40.912Z,16.90
2022-10-04T15:43:26.313Z,16.80
2022-10-04T15:46:32.761Z,16.80
2022-10-04T15:49:38.028Z,16.70
2022-10-04T15:52:40.579Z,16.60
2022-10-04T15:55:22.200Z,16.60
2022-10-04T15:58:33.254Z,16.50
2022-10-04T16:01:29.689Z,16.40
2022-10-04T16:04:46.519Z,16.30
2022-10-04T16:07:51.543Z,16.10
2022-10-04T16:10:28.353Z,16.10
2022-10-04T16:13:40.064Z,16.00
2022-10-04T16:17:00.121Z,16.00
2022-10-04T16:20:14.174Z,15.80
2022-10-04T16:23:22.056Z,15.70
2022-10-04T16:25:51.530Z,15.60
2022-10-04T16:28:51.666Z,15.50
2022-10-04T16:31:49.021Z,15.30
2022-10-04T16:34:53.067Z,15.30
2022-10-04T16:37:35.162Z,15.10
2022-10-04T16:40:26.218Z,15.00
2022-10-04T16:43:02.016Z,14.80
2022-10-04T16:45:44.700Z,14.80
2022-10-04T16:48:37.784Z,14.80
2022-10-04T16:52:06.963Z,14.80
2022-10-04T16:55:09.716Z,14.70
2022-10-04T16:57:39.228Z,14.60
2022-10-04T17:00:43.848Z,14.50
2022-10-04T17:03:28.319Z,14.50
2022-10-04T17:06:15.344Z,14.50
2022-10-04T17:09:09.331Z,14.40
2022-10-04T17:11:46.267Z,14.40
2022-10-04T17:14:57.248Z,14.30
2022-10-04T17:17:45.971Z,14.30
2022-10-04T17:20:29.713Z,14.10
2022-10-04T17:23:21.753Z,14.00
2022-10-04T17:26:06.393Z,13.90
2022-10-04T17:28:49.744Z,13.90
2022-10-04T17:31:28.719Z,14.00
2022-10-04T17:34:14.148Z,13.90
2022-10-04T17:36:46.042Z,13.90
2022-10-04T17:39:47.705Z,13.80
2022-10-04T17:42:34.907Z,13.80
2022-10-04T17:45:42.316Z,13.80
2022-10-04T17:48:34.258Z,13.80
2022-10-04T17:51:31.505Z,13.80
2022-10-04T17:54:30.753Z,13.80
2022-10-04T17:57:19.770Z,13.90
2022-10-04T17:59:59.730Z,13.90
2022-10-04T18:02:50.718Z,13.80
2022-10-04T18:05:24.541Z,13.80
2022-10-04T18:08:01.827Z,13.60
2022-10-04T18:10:36.257Z,13.60
2022-10-04T18:13:16.918Z,13.50
2022-10-04T18:15:56.057Z,13.50
2022-10-04T18:18:32.142Z,13.60
2022-10-04T18:21:07.939Z,13.60
2022-10-04T18:23:55.620Z,13.50
2022-10-04T18:26:27.001Z,13.50
2022-10-04T18:28:56.126Z,13.40
2022-10-04T18:31:38.070Z,13.40
2022-10-04T18:34:28.333Z,13.50
2022-10-04T18:37:16.304Z,13.50
2022-10-04T18:39:55.480Z,13.40
2022-10-04T18:42:29.896Z,13.50
2022-10-04T18:45:00.992Z,13.40
2022-10-04T18:47:38.780Z,13.40
2022-10-04T18:50:23.603Z,13.40
2022-10-04T18:53:47.575Z,13.30
2022-10-04T18:56:16.154Z,13.30
2022-10-04T18:59:28.939Z,13.10
2022-10-04T19:02:14.073Z,13.10
2022-10-04T19:04:49.866Z,13.00
2022-10-04T19:07:27.466Z,13.00
2022-10-04T19:10:22.833Z,12.90
2022-10-04T19:13:24.479Z,12.60
2022-10-04T19:16:23.792Z,12.50
2022-10-04T19:19:18.282Z,12.40
2022-10-04T19:22:01.278Z,12.60
2022-10-04T19:25:01.551Z,12.60
2022-10-04T19:27:37.487Z,12.70
2022-10-04T19:30:22.287Z,12.60
2022-10-04T19:33:13.957Z,12.60
2022-10-04T19:36:03.496Z,12.60
2022-10-04T19:39:01.014Z,12.50
2022-10-04T19:41:46.732Z,12.50
2022-10-04T19:44:42.734Z,12.50
2022-10-04T19:47:39.796Z,12.50
2022-10-04T19:50:21.340Z,12.60
2022-10-04T19:52:54.579Z,12.40
2022-10-04T19:55:39.506Z,12.10
2022-10-04T19:58:25.824Z,12.20
2022-10-04T20:00:55.475Z,12.20
2022-10-04T20:03:24.378Z,12.20
2022-10-04T20:05:55.718Z,12.20
2022-10-04T20:08:51.670Z,12.30
2022-10-04T20:11:27.771Z,12.30
2022-10-04T20:14:48.233Z,12.30
2022-10-04T20:17:34.390Z,12.20
2022-10-04T20:20:03.203Z,12.20
2022-10-04T20:22:59.995Z,12.20
2022-10-04T20:26:06.240Z,12.10
2022-10-04T20:28:46.310Z,12.10
2022-10-04T20:31:57.742Z,12.00
2022-10-04T20:34:35.738Z,12.00
2022-10-04T20:37:06.185Z,11.90
2022-10-04T20:40:02.071Z,12.00
2022-10-04T20:42:34.901Z,11.90
2022-10-04T20:45:24.196Z,11.80
2022-10-04T20:47:57.752Z,11.80
2022-10-04T20:50:39.004Z,11.90
2022-10-04T20:53:16.957Z,11.80
2022-10-04T20:55:46.233Z,11.80
2022-10-04T20:58:32.882Z,11.80
2022-10-04T21:01:16.901Z,11.80
2022-10-04T21:03:45.803Z,11.80
2022-10-04T21:06:14.814Z,11.70
2022-10-04T21:08:43.611Z,11.70
2022-10-04T21:11:21.834Z,11.70
2022-10-04T21:13:57.685Z,11.80
2022-10-04T21:16:56.532Z,11.70
2022-10-04T21:19:50.428Z,11.70
2022-10-04T21:22:39.675Z,11.60
2022-10-04T21:25:33.631Z,11.60
2022-10-04T21:28:36.181Z,11.70
2022-10-04T21:31:05.387Z,11.70
2022-10-04T21:33:37.388Z,11.70
2022-10-04T21:36:07.701Z,11.80
2022-10-04T21:38:36.481Z,11.60
2022-10-04T21:41:05.277Z,11.60
2022-10-04T21:43:33.935Z,11.50
2022-10-04T21:46:02.741Z,11.60
2022-10-04T21:48:31.582Z,11.60
2022-10-04T21:51:01.692Z,11.60
2022-10-04T21:53:30.260Z,11.50
2022-10-04T21:55:58.787Z,11.40
2022-10-04T21:58:27.349Z,11.40
2022-10-04T22:00:55.996Z,11.40
2022-10-04T22:03:24.766Z,11.40
2022-10-04T22:05:53.476Z,11.40
2022-10-04T22:08:23.647Z,11.30
2022-10-04T22:10:57.468Z,11.30
2022-10-04T22:13:26.983Z,11.30
2022-10-04T22:15:55.782Z,11.30
2022-10-04T22:18:24.548Z,11.20
2022-10-04T22:20:53.248Z,11.20
2022-10-04T22:23:26.534Z,11.20
2022-10-04T22:25:57.149Z,11.20
2022-10-04T22:28:29.050Z,11.20
2022-10-04T22:30:58.821Z,11.10
2022-10-04T22:33:35.636Z,11.00
2022-10-04T22:36:16.640Z,11.00
2022-10-04T22:38:52.761Z,11.10
2022-10-04T22:41:21.821Z,11.10
2022-10-04T22:43:51.857Z,11.10
2022-10-04T22:46:22.150Z,11.10
2022-10-04T22:48:51.383Z,11.10
2022-10-04T22:51:21.062Z,11.00
2022-10-04T22:53:51.131Z,10.80
2022-10-04T22:56:19.841Z,10.90
2022-10-04T22:58:48.675Z,10.90
2022-10-04T23:01:19.517Z,10.90
2022-10-04T23:03:51.707Z,10.80
2022-10-04T23:06:20.422Z,10.90
2022-10-04T23:08:50.542Z,10.80
2022-10-04T23:11:19.294Z,10.90
2022-10-04T23:13:47.969Z,11.00
2022-10-04T23:16:20.922Z,11.00
2022-10-04T23:18:49.740Z,10.90
2022-10-04T23:21:25.562Z,10.80
2022-10-04T23:23:55.613Z,10.70
2022-10-04T23:26:28.150Z,10.60
2022-10-04T23:28:56.887Z,10.70
2022-10-04T23:31:28.181Z,10.70
2022-10-04T23:33:58.365Z,10.70
2022-10-04T23:36:27.404Z,10.60
2022-10-04T23:39:02.271Z,10.60
2022-10-04T23:41:30.987Z,10.70
2022-10-04T23:43:59.642Z,10.70
2022-10-04T23:46:31.110Z,10.70
2022-10-04T23:48:59.759Z,10.50
2022-10-04T23:51:29.478Z,10.60
2022-10-04T23:53:59.637Z,10.60
2022-10-04T23:56:30.721Z,10.60
2022-10-04T23:59:00.746Z,10.60
